createdAt,value
2022-08-26T00:01:59.650Z,9.27
2022-08-26T00:04:27.906Z,9.77
2022-08-26T00:06:55.835Z,9.75
2022-08-26T00:09:25.285Z,10.45
2022-08-26T00:11:54.037Z,9.93
2022-08-26T00:14:22.895Z,10.35
2022-08-26T00:16:55.182Z,10.40
2022-08-26T00:19:22.931Z,9.77
2022-08-26T00:21:51.325Z,10.65
2022-08-26T00:24:20.490Z,11.05
2022-08-26T00:26:48.764Z,10.45
2022-08-26T00:29:17.129Z,10.73
2022-08-26T00:31:45.531Z,10.50
2022-08-26T00:34:14.294Z,10.98
2022-08-26T00:36:43.665Z,11.38
2022-08-26T00:39:11.418Z,12.65
2022-08-26T00:41:41.363Z,11.05
2022-08-26T00:44:11.242Z,11.35
2022-08-26T00:46:53.004Z,12.82
2022-08-26T00:49:29.506Z,11.93
2022-08-26T00:52:02.415Z,12.20
2022-08-26T00:54:33.937Z,12.25
2022-08-26T00:57:08.728Z,11.48
2022-08-26T00:59:51.373Z,12.52
2022-08-26T01:02:20.229Z,12.15
2022-08-26T01:04:55.758Z,11.95
2022-08-26T01:07:30.269Z,10.95
2022-08-26T01:10:08.193Z,11.32
2022-08-26T01:12:41.136Z,13.55
2022-08-26T01:15:16.331Z,12.85
2022-08-26T01:17:49.307Z,11.73
2022-08-26T01:20:25.947Z,12.73
2022-08-26T01:23:04.491Z,12.55
2022-08-26T01:25:34.630Z,13.73
2022-08-26T01:28:06.288Z,12.88
2022-08-26T01:30:34.851Z,11.63
2022-08-26T01:33:05.413Z,12.30
2022-08-26T01:35:33.115Z,12.00
2022-08-26T01:38:02.338Z,12.80
2022-08-26T01:40:37.353Z,12.48
2022-08-26T01:43:08.691Z,13.35
2022-08-26T01:45:39.587Z,13.38
2022-08-26T01:48:11.952Z,14.27
2022-08-26T01:50:39.548Z,13.88
2022-08-26T01:53:10.734Z,14.80
2022-08-26T01:55:43.050Z,14.15
2022-08-26T01:58:18.559Z,14.10
2022-08-26T02:00:46.841Z,14.20
2022-08-26T02:03:18.333Z,13.38
2022-08-26T02:05:59.063Z,14.50
2022-08-26T02:08:38.084Z,14.15
2022-08-26T02:11:05.547Z,14.35
2022-08-26T02:13:37.615Z,15.25
2022-08-26T02:16:05.734Z,14.57
2022-08-26T02:18:40.275Z,14.50
2022-08-26T02:21:11.159Z,15.35
2022-08-26T02:23:38.924Z,14.25
2022-08-26T02:26:19.193Z,15.10
2022-08-26T02:29:07.657Z,13.43
2022-08-26T02:31:35.299Z,13.77
2022-08-26T02:34:13.196Z,13.93
2022-08-26T02:36:42.443Z,13.82
2022-08-26T02:39:09.694Z,14.07
2022-08-26T02:41:45.041Z,14.10
2022-08-26T02:44:13.286Z,12.85
2022-08-26T02:46:41.568Z,14.10
2022-08-26T02:49:17.616Z,13.52
2022-08-26T02:51:44.764Z,14.02
2022-08-26T02:54:14.006Z,14.48
2022-08-26T02:56:43.670Z,14.25
2022-08-26T02:59:13.533Z,13.95
2022-08-26T03:01:40.834Z,13.88
2022-08-26T03:04:10.690Z,13.98
2022-08-26T03:06:38.808Z,14.63
2022-08-26T03:09:13.934Z,14.30
2022-08-26T03:11:47.242Z,14.10
2022-08-26T03:14:14.556Z,14.38
2022-08-26T03:16:41.853Z,13.65
2022-08-26T03:19:09.626Z,14.57
2022-08-26T03:21:38.775Z,15.80
2022-08-26T03:24:06.271Z,14.30
2022-08-26T03:26:33.263Z,14.45
2022-08-26T03:29:18.916Z,15.45
2022-08-26T03:31:47.111Z,15.80
2022-08-26T03:34:15.177Z,15.45
2022-08-26T03:36:42.292Z,16.15
2022-08-26T03:39:11.429Z,15.88
2022-08-26T03:41:39.062Z,16.80
2022-08-26T03:44:11.125Z,16.38
2022-08-26T03:46:39.123Z,17.27
2022-08-26T03:49:09.387Z,17.65
2022-08-26T03:51:39.079Z,17.65
2022-08-26T03:54:10.732Z,17.65
2022-08-26T03:56:41.125Z,18.15
2022-08-26T03:59:11.413Z,18.27
2022-08-26T04:01:44.554Z,17.65
2022-08-26T04:04:15.676Z,18.25
2022-08-26T04:06:44.619Z,18.38
2022-08-26T04:09:17.836Z,18.52
2022-08-26T04:11:46.085Z,17.75
2022-08-26T04:14:20.848Z,17.10
2022-08-26T04:16:48.836Z,18.08
2022-08-26T04:19:17.193Z,18.50
2022-08-26T04:21:45.905Z,18.27
2022-08-26T04:24:15.700Z,17.92
2022-08-26T04:26:43.851Z,18.27
2022-08-26T04:29:18.242Z,17.60
2022-08-26T04:31:50.483Z,17.60
2022-08-26T04:34:28.962Z,18.30
2022-08-26T04:36:57.794Z,17.83
2022-08-26T04:39:25.711Z,17.48
2022-08-26T04:41:55.232Z,16.33
2022-08-26T04:44:24.385Z,17.73
2022-08-26T04:46:55.618Z,16.13
2022-08-26T04:49:23.344Z,16.80
2022-08-26T04:51:53.528Z,15.95
2022-08-26T04:54:21.900Z,17.08
2022-08-26T04:56:50.699Z,17.45
2022-08-26T04:59:18.434Z,17.35
2022-08-26T05:01:51.578Z,18.17
2022-08-26T05:04:21.373Z,17.67
2022-08-26T05:06:52.877Z,17.42
2022-08-26T05:09:21.127Z,17.13
2022-08-26T05:11:51.933Z,17.25
2022-08-26T05:14:21.361Z,15.88
2022-08-26T05:16:50.141Z,16.48
2022-08-26T05:19:19.743Z,16.20
2022-08-26T05:21:50.492Z,15.05
2022-08-26T05:24:20.307Z,14.52
2022-08-26T05:26:53.095Z,16.20
2022-08-26T05:29:20.247Z,14.85
2022-08-26T05:31:52.020Z,15.13
2022-08-26T05:34:20.097Z,14.90
2022-08-26T05:36:47.547Z,13.60
2022-08-26T05:39:14.555Z,14.77
2022-08-26T05:41:44.825Z,15.13
2022-08-26T05:44:14.233Z,15.05
2022-08-26T05:46:42.283Z,14.30
2022-08-26T05:49:12.674Z,13.85
2022-08-26T05:51:42.113Z,13.32
2022-08-26T05:54:10.457Z,13.07
2022-08-26T05:56:38.714Z,12.80
2022-08-26T05:59:14.094Z,12.85
2022-08-26T06:01:44.246Z,12.45
2022-08-26T06:04:13.799Z,11.70
2022-08-26T06:06:42.674Z,12.23
2022-08-26T06:09:12.193Z,11.38
2022-08-26T06:11:39.764Z,11.88
2022-08-26T06:14:08.419Z,11.45
2022-08-26T06:16:38.704Z,12.30
2022-08-26T06:19:11.283Z,12.02
2022-08-26T06:21:41.411Z,11.65
2022-08-26T06:24:31.733Z,10.85
2022-08-26T06:27:05.704Z,11.00
2022-08-26T06:29:34.634Z,11.13
2022-08-26T06:32:06.962Z,10.68
2022-08-26T06:34:39.316Z,10.60
2022-08-26T06:37:09.771Z,10.20
2022-08-26T06:39:40.107Z,10.60
2022-08-26T06:42:08.729Z,10.00
2022-08-26T06:44:38.277Z,10.10
2022-08-26T06:47:08.526Z,8.88
2022-08-26T06:49:35.939Z,9.70
2022-08-26T06:52:04.064Z,9.63
2022-08-26T06:54:31.747Z,9.10
2022-08-26T06:56:59.690Z,8.68
2022-08-26T06:59:27.215Z,8.85
2022-08-26T07:01:54.979Z,8.73
2022-08-26T07:04:25.112Z,8.45
2022-08-26T07:06:58.158Z,8.63
2022-08-26T07:09:30.512Z,9.50
2022-08-26T07:11:58.196Z,8.90
2022-08-26T07:14:27.747Z,8.15
2022-08-26T07:16:55.591Z,8.85
2022-08-26T07:19:30.776Z,9.07
2022-08-26T07:22:04.931Z,9.13
2022-08-26T07:24:35.139Z,8.05
2022-08-26T07:27:05.503Z,8.15
2022-08-26T07:29:39.581Z,8.65
2022-08-26T07:32:07.865Z,8.23
2022-08-26T07:34:34.926Z,8.40
2022-08-26T07:37:02.269Z,8.43
2022-08-26T07:39:31.693Z,8.40
2022-08-26T07:42:08.767Z,7.80
2022-08-26T07:44:37.668Z,8.35
2022-08-26T07:47:10.584Z,7.80
2022-08-26T07:49:57.909Z,7.60
2022-08-26T07:52:31.040Z,8.02
2022-08-26T07:55:01.794Z,7.97
2022-08-26T07:57:29.467Z,7.10
2022-08-26T07:59:57.650Z,7.07
2022-08-26T08:02:28.167Z,7.32
2022-08-26T08:04:58.508Z,7.30
2022-08-26T08:07:44.161Z,7.32
2022-08-26T08:10:21.050Z,7.45
2022-08-26T08:12:51.271Z,7.15
2022-08-26T08:15:21.212Z,6.85
2022-08-26T08:17:51.707Z,6.53
2022-08-26T08:20:19.428Z,6.80
2022-08-26T08:22:46.785Z,7.63
2022-08-26T08:25:14.807Z,6.80
2022-08-26T08:27:46.463Z,6.47
2022-08-26T08:30:20.868Z,7.25
2022-08-26T08:32:53.391Z,5.85
2022-08-26T08:35:23.076Z,6.00
2022-08-26T08:37:54.357Z,6.30
2022-08-26T08:40:25.154Z,6.53
2022-08-26T08:43:11.048Z,6.50
2022-08-26T08:45:47.488Z,6.75
2022-08-26T08:48:20.434Z,6.22
2022-08-26T08:51:00.044Z,6.47
2022-08-26T08:53:30.021Z,6.60
2022-08-26T08:56:08.064Z,6.32
2022-08-26T08:58:42.083Z,4.72
2022-08-26T09:01:21.516Z,6.88
2022-08-26T09:03:54.560Z,5.90
2022-08-26T09:06:21.979Z,6.47
2022-08-26T09:08:53.212Z,5.97
2022-08-26T09:11:21.519Z,6.15
2022-08-26T09:13:56.778Z,5.25
2022-08-26T09:16:43.956Z,6.15
2022-08-26T09:19:21.197Z,5.80
2022-08-26T09:21:56.840Z,6.57
2022-08-26T09:24:28.621Z,6.25
2022-08-26T09:26:59.126Z,6.60
2022-08-26T09:29:42.328Z,6.47
2022-08-26T09:32:25.559Z,6.15
2022-08-26T09:34:59.342Z,6.60
2022-08-26T09:37:43.419Z,5.88
2022-08-26T09:40:30.750Z,5.65
2022-08-26T09:43:12.166Z,4.88
2022-08-26T09:45:50.597Z,5.78
2022-08-26T09:48:32.274Z,5.30
2022-08-26T09:51:05.762Z,5.28
2022-08-26T09:53:37.152Z,5.47
2022-08-26T09:56:15.941Z,5.22
2022-08-26T09:58:47.328Z,5.25
2022-08-26T10:01:26.128Z,5.20
2022-08-26T10:04:01.501Z,5.70
2022-08-26T10:06:37.114Z,5.90
2022-08-26T10:09:08.419Z,5.80
2022-08-26T10:11:48.083Z,5.85
2022-08-26T10:14:24.418Z,5.68
2022-08-26T10:17:14.973Z,5.70
2022-08-26T10:19:57.078Z,5.60
2022-08-26T10:22:37.845Z,6.07
2022-08-26T10:25:13.586Z,5.20
2022-08-26T10:27:54.987Z,5.88
2022-08-26T10:30:32.547Z,5.88
2022-08-26T10:33:13.026Z,6.13
2022-08-26T10:36:06.048Z,5.80
2022-08-26T10:38:37.601Z,5.47
2022-08-26T10:41:11.325Z,5.75
2022-08-26T10:43:51.072Z,5.43
2022-08-26T10:46:27.329Z,5.47
2022-08-26T10:49:06.546Z,5.25
2022-08-26T10:51:42.269Z,5.30
2022-08-26T10:54:16.227Z,5.40
2022-08-26T10:56:49.711Z,4.97
2022-08-26T10:59:34.210Z,5.07
2022-08-26T11:02:11.734Z,5.43
2022-08-26T11:04:58.990Z,4.95
2022-08-26T11:07:39.318Z,4.57
2022-08-26T11:10:22.666Z,5.00
2022-08-26T11:13:01.518Z,5.20
2022-08-26T11:15:29.544Z,4.93
2022-08-26T11:18:36.207Z,5.10
2022-08-26T11:21:03.695Z,4.07
2022-08-26T11:23:50.620Z,4.75
2022-08-26T11:26:35.862Z,4.55
2022-08-26T11:29:13.370Z,4.90
2022-08-26T11:31:41.121Z,5.13
2022-08-26T11:34:13.903Z,4.45
2022-08-26T11:36:47.167Z,4.40
2022-08-26T11:39:53.998Z,4.30
2022-08-26T11:42:35.695Z,5.38
2022-08-26T11:45:19.713Z,4.20
2022-08-26T11:47:46.970Z,4.90
2022-08-26T11:50:26.682Z,4.20
2022-08-26T11:53:06.365Z,5.15
2022-08-26T11:55:45.314Z,4.68
2022-08-26T11:58:16.043Z,5.07
2022-08-26T12:00:46.211Z,4.72
2022-08-26T12:03:23.049Z,5.07
2022-08-26T12:05:54.138Z,5.30
2022-08-26T12:08:28.059Z,5.30
2022-08-26T12:13:32.925Z,5.70
2022-08-26T12:16:01.196Z,4.70
2022-08-26T12:18:34.571Z,5.22
2022-08-26T12:21:13.015Z,5.65
2022-08-26T12:23:49.945Z,4.82
2022-08-26T12:26:29.244Z,5.28
2022-08-26T12:29:18.096Z,5.45
2022-08-26T12:31:48.361Z,4.85
2022-08-26T12:34:20.925Z,5.25
2022-08-26T12:39:38.620Z,4.55
2022-08-26T12:42:38.741Z,4.60
2022-08-26T12:45:07.451Z,5.50
2022-08-26T12:47:45.786Z,4.85
2022-08-26T12:50:24.157Z,5.80
2022-08-26T12:52:56.532Z,4.93
2022-08-26T12:55:45.638Z,5.97
2022-08-26T12:58:18.246Z,5.43
2022-08-26T13:00:47.477Z,5.88
2022-08-26T13:03:37.386Z,5.25
2022-08-26T13:06:24.219Z,5.57
2022-08-26T13:08:53.032Z,4.88
2022-08-26T13:11:35.838Z,3.80
2022-08-26T13:14:11.426Z,4.57
2022-08-26T13:16:40.062Z,4.50
2022-08-26T13:19:10.572Z,3.92
2022-08-26T13:21:43.419Z,4.40
2022-08-26T13:24:14.506Z,4.22
2022-08-26T13:26:44.146Z,4.43
2022-08-26T13:29:12.516Z,3.83
2022-08-26T13:31:44.506Z,3.50
2022-08-26T13:34:18.209Z,4.00
2022-08-26T13:36:49.961Z,4.38
2022-08-26T13:39:18.389Z,4.50
2022-08-26T13:41:46.291Z,3.97
2022-08-26T13:44:14.108Z,3.92
2022-08-26T13:46:41.844Z,4.47
2022-08-26T13:49:09.684Z,4.43
2022-08-26T13:51:37.881Z,4.10
2022-08-26T13:54:09.053Z,4.15
2022-08-26T13:56:36.788Z,4.22
2022-08-26T13:59:09.059Z,3.97
2022-08-26T14:01:36.682Z,4.18
2022-08-26T14:04:04.248Z,4.43
2022-08-26T14:06:32.072Z,3.88
2022-08-26T14:08:59.936Z,4.10
2022-08-26T14:11:27.865Z,4.68
2022-08-26T14:13:55.146Z,4.40
2022-08-26T14:16:33.633Z,4.22
2022-08-26T14:19:02.443Z,4.20
2022-08-26T14:21:33.483Z,4.20
2022-08-26T14:24:01.268Z,4.60
2022-08-26T14:26:30.070Z,4.28
2022-08-26T14:28:59.599Z,3.58
2022-08-26T14:31:29.416Z,5.13
2022-08-26T14:34:03.943Z,4.28
2022-08-26T14:36:32.509Z,4.18
2022-08-26T14:39:12.062Z,4.30
2022-08-26T14:41:54.410Z,4.18
2022-08-26T14:44:27.159Z,3.45
2022-08-26T14:46:57.930Z,4.32
2022-08-26T14:49:25.380Z,3.45
2022-08-26T14:51:53.254Z,4.25
2022-08-26T14:54:21.334Z,3.75
2022-08-26T14:57:03.775Z,3.92
2022-08-26T14:59:37.455Z,3.55
2022-08-26T15:02:10.608Z,4.15
2022-08-26T15:04:43.657Z,4.45
2022-08-26T15:07:12.813Z,3.83
2022-08-26T15:09:40.082Z,3.83
2022-08-26T15:12:07.403Z,3.45
2022-08-26T15:14:34.613Z,3.60
2022-08-26T15:17:02.473Z,4.35
2022-08-26T15:19:29.688Z,3.65
2022-08-26T15:21:56.851Z,4.32
2022-08-26T15:24:25.982Z,4.07
2022-08-26T15:26:55.094Z,3.67
2022-08-26T15:29:24.123Z,3.88
2022-08-26T15:31:51.789Z,4.07
2022-08-26T15:34:22.694Z,4.57
2022-08-26T15:36:49.719Z,4.95
2022-08-26T15:39:17.727Z,4.20
2022-08-26T15:41:47.786Z,3.88
2022-08-26T15:44:20.253Z,3.60
2022-08-26T15:46:50.127Z,4.20
2022-08-26T15:49:20.130Z,3.85
2022-08-26T15:51:50.586Z,3.72
2022-08-26T15:54:20.904Z,3.85
2022-08-26T15:56:51.779Z,3.80
2022-08-26T15:59:22.589Z,4.15
2022-08-26T16:01:49.879Z,4.20
2022-08-26T16:04:18.658Z,3.75
2022-08-26T16:06:50.369Z,4.32
2022-08-26T16:09:19.166Z,3.75
2022-08-26T16:11:50.671Z,3.35
2022-08-26T16:14:18.080Z,4.50
2022-08-26T16:16:49.963Z,4.03
2022-08-26T16:19:17.313Z,3.58
2022-08-26T16:21:45.556Z,3.50
2022-08-26T16:24:13.195Z,3.95
2022-08-26T16:26:42.106Z,3.88
2022-08-26T16:29:14.429Z,4.30
2022-08-26T16:31:42.055Z,3.90
2022-08-26T16:34:12.182Z,3.60
2022-08-26T16:36:40.317Z,4.10
2022-08-26T16:39:08.633Z,3.67
2022-08-26T16:41:36.244Z,4.30
2022-08-26T16:44:07.236Z,4.20
2022-08-26T16:46:35.352Z,4.30
2022-08-26T16:49:04.618Z,4.05
2022-08-26T16:51:37.811Z,3.83
2022-08-26T16:54:07.247Z,4.07
2022-08-26T16:56:35.671Z,3.70
2022-08-26T16:59:04.357Z,4.57
2022-08-26T17:01:31.517Z,4.13
2022-08-26T17:03:58.860Z,4.30
2022-08-26T17:06:25.914Z,4.50
2022-08-26T17:08:55.522Z,4.00
2022-08-26T17:11:24.979Z,3.83
2022-08-26T17:13:51.987Z,4.15
2022-08-26T17:16:21.257Z,3.70
2022-08-26T17:18:50.337Z,3.88
2022-08-26T17:21:18.129Z,4.00
2022-08-26T17:23:46.339Z,4.28
2022-08-26T17:26:16.057Z,4.20
2022-08-26T17:28:43.151Z,4.57
2022-08-26T17:31:12.278Z,4.28
2022-08-26T17:33:40.723Z,4.90
2022-08-26T17:36:09.243Z,4.10
2022-08-26T17:38:37.834Z,4.10
2022-08-26T17:41:13.021Z,4.40
2022-08-26T17:43:42.482Z,4.70
2022-08-26T17:46:11.403Z,4.30
2022-08-26T17:48:41.542Z,4.45
2022-08-26T17:51:11.207Z,4.65
2022-08-26T17:53:41.543Z,5.18
2022-08-26T17:56:12.588Z,5.55
2022-08-26T17:58:51.096Z,5.10
2022-08-26T18:01:20.456Z,5.22
2022-08-26T18:03:48.237Z,5.60
2022-08-26T18:06:15.381Z,5.35
2022-08-26T18:08:42.479Z,4.93
2022-08-26T18:11:11.584Z,4.93
2022-08-26T18:13:40.704Z,4.80
2022-08-26T18:16:17.024Z,4.95
2022-08-26T18:18:47.735Z,5.00
2022-08-26T18:21:23.533Z,4.60
2022-08-26T18:23:51.871Z,4.97
2022-08-26T18:26:23.467Z,4.93
2022-08-26T18:28:50.626Z,5.28
2022-08-26T18:31:20.707Z,5.07
2022-08-26T18:33:50.774Z,5.35
2022-08-26T18:36:37.034Z,5.25
2022-08-26T18:39:05.713Z,5.90
2022-08-26T18:41:38.383Z,5.03
2022-08-26T18:44:05.409Z,5.45
2022-08-26T18:46:32.443Z,4.95
2022-08-26T18:48:59.652Z,5.38
2022-08-26T18:51:32.387Z,5.13
2022-08-26T18:54:01.806Z,5.57
2022-08-26T18:56:30.196Z,5.00
2022-08-26T18:58:59.097Z,5.75
2022-08-26T19:01:27.822Z,5.32
2022-08-26T19:03:59.487Z,5.22
2022-08-26T19:06:31.842Z,5.05
2022-08-26T19:09:04.983Z,4.78
2022-08-26T19:11:42.219Z,5.22
2022-08-26T19:14:13.802Z,4.90
2022-08-26T19:16:43.312Z,5.05
2022-08-26T19:19:12.136Z,5.10
2022-08-26T19:21:39.752Z,5.45
2022-08-26T19:24:12.590Z,4.72
2022-08-26T19:26:39.746Z,6.03
2022-08-26T19:29:07.125Z,5.28
2022-08-26T19:31:34.498Z,6.05
2022-08-26T19:34:02.077Z,5.65
2022-08-26T19:36:29.699Z,5.95
2022-08-26T19:38:56.847Z,6.82
2022-08-26T19:41:34.137Z,6.25
2022-08-26T19:44:09.759Z,6.57
2022-08-26T19:49:05.557Z,6.05
2022-08-26T19:51:35.722Z,5.82
2022-08-26T19:54:03.981Z,5.68
2022-08-26T19:56:31.788Z,6.07
2022-08-26T19:59:04.798Z,6.05
2022-08-26T20:01:32.252Z,6.13
2022-08-26T20:03:59.793Z,5.60
2022-08-26T20:06:29.443Z,6.70
2022-08-26T20:08:56.716Z,5.65
2022-08-26T20:11:24.170Z,6.15
2022-08-26T20:13:54.306Z,5.80
2022-08-26T20:16:21.648Z,5.80
2022-08-26T20:19:07.645Z,5.85
2022-08-26T20:21:39.251Z,5.60
2022-08-26T20:24:16.168Z,6.80
2022-08-26T20:26:48.077Z,6.25
2022-08-26T20:29:17.553Z,7.30
2022-08-26T20:31:48.870Z,6.53
2022-08-26T20:34:18.684Z,6.97
2022-08-26T20:36:48.159Z,6.80
2022-08-26T20:39:18.039Z,6.57
2022-08-26T20:41:45.607Z,6.10
2022-08-26T20:44:16.801Z,6.32
2022-08-26T20:46:46.272Z,6.40
2022-08-26T20:49:14.844Z,6.28
2022-08-26T20:51:45.851Z,5.82
2022-08-26T20:54:13.294Z,5.55
2022-08-26T20:56:40.512Z,6.05
2022-08-26T20:59:10.111Z,6.15
2022-08-26T21:01:42.442Z,6.07
2022-08-26T21:04:15.589Z,5.88
2022-08-26T21:06:51.591Z,6.25
2022-08-26T21:09:20.219Z,6.40
2022-08-26T21:11:49.703Z,6.10
2022-08-26T21:14:17.604Z,6.00
2022-08-26T21:16:46.212Z,6.10
2022-08-26T21:19:18.100Z,5.95
2022-08-26T21:21:48.419Z,5.82
2022-08-26T21:24:18.737Z,6.00
2022-08-26T21:26:46.948Z,6.15
2022-08-26T21:29:14.315Z,6.07
2022-08-26T21:31:46.740Z,5.60
2022-08-26T21:34:17.077Z,5.90
2022-08-26T21:36:46.685Z,6.03
2022-08-26T21:39:14.470Z,6.00
2022-08-26T21:41:43.515Z,5.25
2022-08-26T21:44:11.946Z,6.20
2022-08-26T21:46:45.763Z,5.63
2022-08-26T21:49:18.968Z,5.40
2022-08-26T21:51:48.348Z,5.75
2022-08-26T21:54:18.673Z,5.95
2022-08-26T21:56:47.501Z,5.50
2022-08-26T21:59:18.720Z,5.80
2022-08-26T22:01:46.427Z,5.55
2022-08-26T22:04:13.738Z,5.68
2022-08-26T22:06:52.607Z,6.22
2022-08-26T22:09:25.309Z,5.40
2022-08-26T22:11:53.808Z,5.80
2022-08-26T22:14:30.773Z,5.68
2022-08-26T22:16:59.412Z,5.90
2022-08-26T22:19:31.928Z,5.60
2022-08-26T22:22:03.747Z,5.45
2022-08-26T22:24:31.211Z,5.35
2022-08-26T22:27:00.550Z,5.18
2022-08-26T22:29:27.617Z,5.45
2022-08-26T22:31:55.078Z,5.57
2022-08-26T22:34:24.644Z,4.85
2022-08-26T22:36:51.825Z,5.55
2022-08-26T22:39:22.743Z,5.50
2022-08-26T22:41:54.503Z,4.85
2022-08-26T22:44:22.579Z,4.95
2022-08-26T22:46:54.362Z,5.57
2022-08-26T22:49:22.044Z,4.85
2022-08-26T22:51:52.656Z,5.28
2022-08-26T22:54:19.725Z,5.47
2022-08-26T22:56:50.173Z,4.90
2022-08-26T22:59:18.074Z,5.10
2022-08-26T23:01:46.940Z,5.28
2022-08-26T23:04:14.357Z,5.25
2022-08-26T23:06:47.467Z,5.57
2022-08-26T23:09:18.234Z,6.18
2022-08-26T23:11:46.878Z,5.50
2022-08-26T23:14:14.488Z,5.50
2022-08-26T23:16:43.774Z,5.88
2022-08-26T23:19:13.997Z,5.60
2022-08-26T23:21:41.539Z,5.82
2022-08-26T23:24:09.689Z,5.32
2022-08-26T23:26:38.764Z,4.90
2022-08-26T23:29:08.107Z,4.78
2022-08-26T23:31:37.468Z,4.68
2022-08-26T23:34:23.847Z,4.28
2022-08-26T23:36:51.221Z,3.83
2022-08-26T23:39:19.311Z,3.97
2022-08-26T23:41:49.136Z,4.47
2022-08-26T23:44:19.435Z,4.43
2022-08-26T23:46:47.079Z,4.00
2022-08-26T23:49:14.206Z,3.95
2022-08-26T23:52:00.012Z,4.10
2022-08-26T23:54:27.932Z,3.75
2022-08-26T23:56:55.146Z,3.58
2022-08-26T23:59:22.228Z,3.50
